Pagrindinis puslapis
METAR-TAF:

METAR-TAF

Oro uostai :

Barbasena, Minas Žeraisas, Brazilija

platuma: 21-15S, ilguma: 043-46W, Aukštis: 1171 m

Dabartinis oras

Ataskaita buvo paskelbta 1 valandą ir 7 minutes, ne 20:00 UTC
Vėjas 9 kt iš Šiaurės Vakarų
Temperatūra 22°C
Drėgmė 73%
Slėgis 1016 hPa
Matomumas 10 km arba daugiau
Išsisklaidę debesys ne aukštis 2500 ft
Mažai debesys ne aukštis 4000 ft, aukštai iškilę kamuoliniai debesys.

METAR: SBBQ 122000Z 32009KT 9999 SCT025 FEW040TCU 22/17 Q1016

Laikas: 18:07 (21:07 UTC)


TAF: trūkstamas

Orai ataskaitas ir orų prognozės (METAR, TAF).

turimą stotys yra geltonos ir raudonos taškus žemėlapyje.

Perkelti pele per norėdami pamatyti stoties vardą.

Tada spustelėkite, norėdami matyti oro stebėjimo ir prognozės.

Norėdami pakeisti žemėlapį: spustelėkite ant žalios mygtukų su juodo kryžiaus žemyn,; žalią mygtuką su brūkšneliu, jei norite nutolinti; arba žalių rodyklių gretimoms žemėlapius.


METAR-TAF: